Главная страница
METAR-TAF:

METAR-TAF

Аэропорты :

Цзянбэй

Чунцин, Китай

широта: 29-31N, долгота: 106-29E, высота над уровнем моря: 351 м

Текущие метеонаблюдения

Эта сводка был подготовлена 53 минут назад, в 19:00 UTC
Ветер 6 Узел от северный
Температура 13°C
Влажность 94%
Давление 1020 hPa
Видимость: 6000 м
небольшая облачность на высоте 3300 фута
Сплошная облачность на высоте 5000 фута

METAR: ZUCK 151900Z 01003MPS 6000 FEW033 OVC050 13/12 Q1020 NOSIG

Время: 03:53 (19:53 UTC)

Прогноз

Эта сводка был подготовлена 4 часа и 46 минут назад, в 15:07 UTC
Прогноз действительный с 15-го 18 UTC до 16-го 18 UTC
Ветер 8 Узел от северо-северо-восточный
Видимость: 3000 м
небольшая облачность на высоте 700 фута
Отдельные облака на высоте 2000 фута
Сплошная облачность на высоте 3300 фута
небольшой дождь, дымка

TAF: ZUCK 151507Z 1518/1618 03004MPS 3000 -RA BR FEW007 SCT020 OVC033 TX13/1608Z TN11/1522Z

Метеонаблюдения и прогнозы для более 4000 аэропортов (сводки METAR и TAF).

Имеющиеся станции представлены на карте желтыми и красными точками.

Чтобы увидеть название станции, наведите на нее мышь.

Затем щелкните, чтобы увидеть метеонаблюдения и метеопрогнозы.

Управление картой: чтобы увеличить масштаб, щелкните зеленые кнопки с черным крестиком; чтобы уменьшить масштаб, щелкните зеленую кнопку с тире; для просмотра соседних карт щелкайте зеленые стрелки.


METAR-TAF: